Time;durP1;ratioP1;P1;durP2;ratioP2;P2;SDS_P1;SDS_P2;PMS_P1;PMS_P2;Temp;Humidity;BMP_temperature;BMP_pressure;BME280_temperature;BME280_humidity;BME280_pressure;Samples;Min_cycle;Max_cycle;Signal;HPM_P1;HPM_P2
2023/12/21 00:01:40;;;;;;;0.00;0.00;;;;;;;7.37;100.00;98459.09;5113348;28;20704;-52
2023/12/21 00:04:27;;;;;;;0.10;0.10;;;;;;;7.41;100.00;98479.03;5113407;28;20202;-51
2023/12/21 00:07:14;;;;;;;0.00;0.00;;;;;;;7.37;100.00;98469.63;5113370;28;20193;-51
2023/12/21 00:10:03;;;;;;;0.10;0.10;;;;;;;7.34;100.00;98463.72;5111995;28;20197;-52
2023/12/21 00:12:50;;;;;;;0.07;0.07;;;;;;;7.36;100.00;98456.56;5113291;28;20197;-52
2023/12/21 00:15:37;;;;;;;0.00;0.00;;;;;;;7.36;100.00;98443.41;5113256;28;20312;-52
2023/12/21 00:18:23;;;;;;;0.00;0.00;;;;;;;7.37;100.00;98440.66;5113077;28;20244;-52
2023/12/21 00:21:10;;;;;;;0.00;0.00;;;;;;;7.41;100.00;98442.16;5113315;28;20209;-53
2023/12/21 00:23:58;;;;;;;0.00;0.00;;;;;;;7.45;100.00;98434.91;5111886;28;20193;-52
2023/12/21 00:26:46;;;;;;;0.00;0.00;;;;;;;7.51;100.00;98423.13;5113133;28;20198;-52
2023/12/21 00:29:32;;;;;;;0.00;0.00;;;;;;;7.49;100.00;98394.25;5113044;28;20190;-52
2023/12/21 00:32:19;;;;;;;0.00;0.00;;;;;;;7.48;100.00;98397.84;5113090;28;20198;-52
2023/12/21 00:35:07;;;;;;;0.00;0.00;;;;;;;7.52;100.00;98380.88;5117004;28;20360;-52
2023/12/21 00:37:53;;;;;;;0.00;0.00;;;;;;;7.52;100.00;98393.19;5115660;28;20194;-52
2023/12/21 00:40:40;;;;;;;0.10;0.10;;;;;;;7.57;100.00;98383.22;5116934;28;20345;-52
2023/12/21 00:43:29;;;;;;;0.10;0.10;;;;;;;7.63;100.00;98388.13;5116913;28;20194;-52
2023/12/21 00:46:16;;;;;;;0.10;0.10;;;;;;;7.61;100.00;98379.44;5116834;28;20190;-52
2023/12/21 00:49:02;;;;;;;0.00;0.00;;;;;;;7.69;100.00;98383.28;5116817;28;20293;-51
2023/12/21 00:51:49;;;;;;;0.00;0.00;;;;;;;7.70;100.00;98378.84;5116551;28;20299;-52
2023/12/21 00:54:36;;;;;;;0.10;0.10;;;;;;;7.76;100.00;98389.00;5115453;28;20198;-52
2023/12/21 00:57:23;;;;;;;0.00;0.00;;;;;;;7.79;100.00;98378.25;5116734;28;20312;-52
2023/12/21 01:00:13;;;;;;;0.00;0.00;;;;;;;7.80;100.00;98364.13;5116749;28;20236;-52
2023/12/21 01:02:59;;;;;;;0.00;0.00;;;;;;;7.82;100.00;98362.25;5116480;28;20244;-52
2023/12/21 01:05:46;;;;;;;0.00;0.00;;;;;;;7.80;100.00;98336.91;5116359;28;20194;-52
2023/12/21 01:08:34;;;;;;;0.00;0.00;;;;;;;7.84;100.00;98364.78;5115112;28;20204;-52
2023/12/21 01:11:20;;;;;;;0.00;0.00;;;;;;;7.93;100.00;98370.28;5116229;28;20708;-52
2023/12/21 01:14:07;;;;;;;0.10;0.10;;;;;;;7.96;100.00;98372.72;5116461;28;20197;-52
2023/12/21 01:16:55;;;;;;;0.10;0.10;;;;;;;7.91;100.00;98376.59;5116357;28;20244;-52
2023/12/21 01:19:42;;;;;;;0.10;0.10;;;;;;;7.89;100.00;98379.34;5114906;28;20225;-52
2023/12/21 01:22:29;;;;;;;0.00;0.00;;;;;;;7.88;100.00;98359.19;5116224;28;20276;-52
2023/12/21 01:25:16;;;;;;;0.00;0.00;;;;;;;7.93;100.00;98358.91;5116188;28;20198;-52
2023/12/21 01:28:03;;;;;;;0.00;0.00;;;;;;;7.93;100.00;98354.47;5116009;28;20262;-52
2023/12/21 01:30:50;;;;;;;0.00;0.00;;;;;;;7.83;100.00;98350.75;5115987;28;20206;-51
2023/12/21 01:33:39;;;;;;;0.10;0.10;;;;;;;7.84;100.00;98351.59;5115972;28;20191;-52
2023/12/21 01:36:26;;;;;;;0.00;0.00;;;;;;;7.85;100.00;98353.28;5116019;28;20271;-51
2023/12/21 01:39:17;;;;;;;0.10;0.10;;;;;;;7.82;100.00;98353.50;5114675;28;20199;-52
2023/12/21 01:42:06;;;;;;;0.00;0.00;;;;;;;7.79;100.00;98330.78;5115750;28;20320;-52
2023/12/21 01:44:53;;;;;;;0.00;0.00;;;;;;;7.78;100.00;98339.66;5114522;28;20236;-52
2023/12/21 01:47:40;;;;;;;0.00;0.00;;;;;;;7.76;100.00;98349.47;5115897;28;20194;-52
2023/12/21 01:50:29;;;;;;;0.00;0.00;;;;;;;7.72;100.00;98337.41;5115468;28;20193;-51
2023/12/21 01:53:16;;;;;;;0.00;0.00;;;;;;;7.76;100.00;98336.28;5114373;28;20189;-52
2023/12/21 01:56:04;;;;;;;0.00;0.00;;;;;;;7.68;100.00;98339.41;5115598;28;20186;-52
2023/12/21 01:58:52;;;;;;;0.00;0.00;;;;;;;7.69;100.00;98346.38;5115301;28;20194;-52
2023/12/21 02:01:39;;;;;;;0.00;0.00;;;;;;;7.68;100.00;98343.84;5115567;28;20190;-51
2023/12/21 02:04:27;;;;;;;0.03;0.03;;;;;;;7.70;100.00;98334.03;5115373;28;20248;-52
2023/12/21 02:07:16;;;;;;;0.00;0.00;;;;;;;7.70;100.00;98299.78;5115360;28;20194;-51
2023/12/21 02:10:02;;;;;;;0.00;0.00;;;;;;;7.60;100.00;98302.19;5114238;28;20199;-52
2023/12/21 02:12:49;;;;;;;0.00;0.00;;;;;;;7.63;100.00;98304.63;5115002;28;20214;-52
2023/12/21 02:15:36;;;;;;;0.00;0.00;;;;;;;7.68;100.00;98285.88;5115051;28;20186;-52
2023/12/21 02:18:23;;;;;;;0.07;0.07;;;;;;;7.68;100.00;98291.97;5115015;28;20229;-52
2023/12/21 02:21:13;;;;;;;0.00;0.00;;;;;;;7.72;100.00;98288.22;5115199;28;20193;-52
2023/12/21 02:24:04;;;;;;;0.03;0.03;;;;;;;7.74;100.00;98294.22;5113507;28;20186;-52
2023/12/21 02:26:53;;;;;;;0.00;0.00;;;;;;;7.79;100.00;98269.31;5114984;28;20194;-52
2023/12/21 02:29:40;;;;;;;0.00;0.00;;;;;;;7.78;100.00;98268.50;5114932;28;20287;-52
2023/12/21 02:32:27;;;;;;;0.00;0.00;;;;;;;7.79;100.00;98274.59;5114581;28;20796;-52
2023/12/21 02:35:14;;;;;;;0.00;0.00;;;;;;;7.84;100.00;98260.19;5114964;28;20232;-52
2023/12/21 02:38:00;;;;;;;0.00;0.00;;;;;;;7.82;100.00;98248.91;5113419;28;20197;-52
2023/12/21 02:40:47;;;;;;;0.10;0.10;;;;;;;7.84;100.00;98252.28;5114685;28;20271;-52
2023/12/21 02:43:36;;;;;;;0.10;0.10;;;;;;;7.87;100.00;98246.78;5114630;28;20186;-52
2023/12/21 02:46:26;;;;;;;0.00;0.00;;;;;;;7.91;100.00;98250.91;5114541;28;20190;-51
2023/12/21 02:49:13;;;;;;;0.03;0.03;;;;;;;7.91;100.00;98229.81;5113615;28;20191;-52
2023/12/21 02:51:59;;;;;;;0.00;0.00;;;;;;;7.93;100.00;98227.09;5114357;28;20217;-52
2023/12/21 02:54:46;;;;;;;0.10;0.10;;;;;;;7.97;100.00;98221.47;5113103;28;20260;-52
2023/12/21 02:57:33;;;;;;;0.00;0.00;;;;;;;8.03;100.00;98225.50;5113962;28;20240;-53
2023/12/21 03:00:22;;;;;;;0.00;0.00;;;;;;;8.12;100.00;98224.88;5114161;28;20190;-52
2023/12/21 03:03:08;;;;;;;0.00;0.00;;;;;;;8.12;100.00;98224.03;5114214;28;20723;-52
2023/12/21 03:05:55;;;;;;;0.00;0.00;;;;;;;8.14;100.00;98219.47;5114200;28;20669;-51
2023/12/21 03:08:42;;;;;;;0.00;0.00;;;;;;;8.19;100.00;98201.53;5112985;28;20255;-52
2023/12/21 03:11:29;;;;;;;0.10;0.10;;;;;;;8.21;100.00;98189.09;5113850;28;20198;-52
2023/12/21 03:14:16;;;;;;;0.10;0.10;;;;;;;8.26;100.00;98174.63;5114012;28;20225;-52
2023/12/21 03:17:04;;;;;;;0.00;0.00;;;;;;;8.26;100.00;98187.81;5114031;28;20212;-52
2023/12/21 03:19:51;;;;;;;0.00;0.00;;;;;;;8.24;100.00;98176.53;5113487;28;20226;-52
2023/12/21 03:22:38;;;;;;;0.10;0.10;;;;;;;8.29;100.00;98166.47;5113177;28;20191;-52
2023/12/21 03:25:25;;;;;;;0.00;0.00;;;;;;;8.32;100.00;98157.53;5113851;28;20301;-52
2023/12/21 03:28:14;;;;;;;0.00;0.00;;;;;;;8.27;100.00;98149.94;5113750;28;20685;-52
2023/12/21 03:31:01;;;;;;;0.00;0.00;;;;;;;8.30;100.00;98148.88;5113826;28;20193;-52
2023/12/21 03:33:50;;;;;;;0.00;0.00;;;;;;;8.25;100.00;98145.72;5113711;28;20676;-52
2023/12/21 03:36:36;;;;;;;0.00;0.00;;;;;;;8.28;100.00;98140.22;5113636;28;20206;-52
2023/12/21 03:39:23;;;;;;;0.10;0.10;;;;;;;8.25;100.00;98146.56;5112381;28;20185;-52
2023/12/21 03:42:10;;;;;;;0.00;0.00;;;;;;;8.28;100.00;98121.75;5113666;28;20194;-52
2023/12/21 03:44:57;;;;;;;0.10;0.10;;;;;;;8.30;100.00;98112.81;5113509;28;20237;-52
2023/12/21 03:47:44;;;;;;;0.00;0.00;;;;;;;8.28;100.00;98109.41;5113497;28;20202;-52
2023/12/21 03:50:31;;;;;;;0.03;0.03;;;;;;;8.34;100.00;98116.06;5113507;28;20197;-52
2023/12/21 03:53:18;;;;;;;0.10;0.10;;;;;;;8.27;100.00;98109.53;5111936;28;20225;-52
2023/12/21 03:56:07;;;;;;;0.00;0.00;;;;;;;8.27;100.00;98105.09;5113466;28;20232;-52
2023/12/21 03:58:54;;;;;;;0.00;0.00;;;;;;;8.24;100.00;98115.88;5113496;28;20185;-52
2023/12/21 04:01:40;;;;;;;0.00;0.00;;;;;;;8.23;100.00;98102.78;5113683;28;20198;-52
2023/12/21 04:04:27;;;;;;;0.00;0.00;;;;;;;8.28;100.00;98106.75;5113360;28;20194;-52
2023/12/21 04:07:16;;;;;;;0.00;0.00;;;;;;;8.39;100.00;98102.53;5113326;28;20189;-52
2023/12/21 04:10:03;;;;;;;0.10;0.10;;;;;;;8.37;100.00;98094.75;5116715;28;20312;-52
2023/12/21 04:12:50;;;;;;;0.00;0.00;;;;;;;8.39;100.00;98090.19;5117473;28;20261;-51
2023/12/21 04:15:36;;;;;;;0.00;0.00;;;;;;;8.45;100.00;98070.44;5117476;28;20190;-52
2023/12/21 04:18:23;;;;;;;0.00;0.00;;;;;;;8.47;100.00;98060.63;5117194;28;20225;-52
2023/12/21 04:21:10;;;;;;;0.00;0.00;;;;;;;8.49;100.00;98061.34;5117395;28;20324;-52
2023/12/21 04:23:59;;;;;;;0.00;0.00;;;;;;;8.50;100.00;98050.69;5116049;28;20718;-52
2023/12/21 04:26:46;;;;;;;0.10;0.10;;;;;;;8.53;100.00;98039.06;5117287;28;20201;-51
2023/12/21 04:29:33;;;;;;;0.07;0.07;;;;;;;8.52;100.00;98026.84;5117169;28;20201;-52
2023/12/21 04:32:20;;;;;;;0.00;0.00;;;;;;;8.45;100.00;98033.50;5117160;28;20248;-52
2023/12/21 04:35:09;;;;;;;0.00;0.00;;;;;;;8.51;100.00;98028.63;5117110;28;20194;-52
2023/12/21 04:37:56;;;;;;;0.00;0.00;;;;;;;8.46;100.00;98020.19;5115897;28;20355;-53
2023/12/21 04:40:44;;;;;;;0.00;0.00;;;;;;;8.44;100.00;98008.09;5116053;28;20286;-52
2023/12/21 04:43:31;;;;;;;0.00;0.00;;;;;;;8.38;100.00;98008.53;5116870;28;20714;-52
2023/12/21 04:46:18;;;;;;;0.00;0.00;;;;;;;8.40;100.00;98004.84;5116994;28;20197;-52
2023/12/21 04:49:05;;;;;;;0.10;0.10;;;;;;;8.39;100.00;98018.97;5115888;28;20194;-52
2023/12/21 04:51:52;;;;;;;0.00;0.00;;;;;;;8.46;100.00;98014.94;5116874;28;20202;-52
2023/12/21 04:54:40;;;;;;;0.00;0.00;;;;;;;8.48;100.00;98014.81;5115477;28;20194;-52
2023/12/21 04:57:28;;;;;;;0.03;0.03;;;;;;;8.47;100.00;98006.06;5116835;28;20198;-52
2023/12/21 05:00:15;;;;;;;0.00;0.00;;;;;;;8.48;100.00;97997.19;5116604;28;20220;-52
2023/12/21 05:03:02;;;;;;;0.10;0.10;;;;;;;8.49;100.00;97998.00;5116661;28;20197;-52
2023/12/21 05:05:49;;;;;;;0.00;0.00;;;;;;;8.49;100.00;97998.00;5116626;28;20320;-52
2023/12/21 05:08:36;;;;;;;0.00;0.00;;;;;;;8.51;100.00;97994.34;5115000;28;20198;-52
2023/12/21 05:11:23;;;;;;;0.10;0.10;;;;;;;8.48;100.00;97980.50;5116431;28;20194;-52
2023/12/21 05:14:11;;;;;;;0.03;0.03;;;;;;;8.54;100.00;97977.41;5116121;28;20267;-52
2023/12/21 05:16:58;;;;;;;0.00;0.00;;;;;;;8.54;100.00;97964.22;5115169;28;20197;-52
2023/12/21 05:19:46;;;;;;;0.10;0.10;;;;;;;8.58;100.00;97957.75;5115594;28;20234;-52
2023/12/21 05:22:33;;;;;;;0.00;0.00;;;;;;;8.58;100.00;97936.63;5115864;28;20190;-52
2023/12/21 05:25:20;;;;;;;0.00;0.00;;;;;;;8.56;100.00;97934.13;5116028;28;20210;-52
2023/12/21 05:28:07;;;;;;;0.00;0.00;;;;;;;8.65;100.00;97935.22;5116187;28;20197;-52
2023/12/21 05:30:55;;;;;;;0.10;0.10;;;;;;;8.67;100.00;97916.63;5116060;28;20194;-51
2023/12/21 05:33:42;;;;;;;0.10;0.10;;;;;;;8.67;100.00;97912.19;5115599;28;20248;-52
2023/12/21 05:36:29;;;;;;;0.10;0.10;;;;;;;8.71;100.00;97891.69;5115937;28;20274;-51
2023/12/21 05:39:16;;;;;;;0.10;0.10;;;;;;;8.77;100.00;97894.69;5114540;28;20381;-52
2023/12/21 05:42:04;;;;;;;0.10;0.10;;;;;;;8.87;100.00;97881.63;5115569;28;20692;-52
2023/12/21 05:44:52;;;;;;;0.10;0.10;;;;;;;8.93;100.00;97883.78;5115776;28;20308;-52
2023/12/21 05:47:40;;;;;;;0.00;0.00;;;;;;;8.99;100.00;97882.47;5115759;28;20274;-52
2023/12/21 05:50:27;;;;;;;0.10;0.10;;;;;;;9.05;100.00;97869.63;5115576;28;20674;-52
2023/12/21 05:53:14;;;;;;;0.00;0.00;;;;;;;9.06;100.00;97849.31;5114153;28;20283;-52
2023/12/21 05:56:02;;;;;;;0.00;0.00;;;;;;;8.99;100.00;97859.56;5115549;28;20190;-52
2023/12/21 05:58:49;;;;;;;0.00;0.00;;;;;;;8.96;100.00;97848.38;5115427;28;20301;-52
2023/12/21 06:01:36;;;;;;;0.00;0.00;;;;;;;9.01;100.00;97836.50;5115545;28;20564;-52
2023/12/21 06:04:24;;;;;;;0.10;0.10;;;;;;;9.03;100.00;97831.09;5115522;28;20241;-52
2023/12/21 06:07:11;;;;;;;0.00;0.00;;;;;;;9.02;100.00;97830.25;5115277;28;20256;-52
2023/12/21 06:09:59;;;;;;;0.10;0.10;;;;;;;9.05;100.00;97821.25;5114837;28;20194;-52
2023/12/21 06:12:46;;;;;;;0.00;0.00;;;;;;;9.06;100.00;97815.00;5115415;28;20191;-52
2023/12/21 06:15:34;;;;;;;0.00;0.00;;;;;;;9.01;100.00;97801.34;5115107;28;20186;-52
2023/12/21 06:18:20;;;;;;;0.00;0.00;;;;;;;9.08;100.00;97813.09;5114990;28;20218;-52
2023/12/21 06:21:09;;;;;;;0.00;0.00;;;;;;;9.12;100.00;97809.25;5115159;28;20202;-52
2023/12/21 06:23:56;;;;;;;0.00;0.00;;;;;;;9.08;100.00;97787.53;5113567;28;20186;-52
2023/12/21 06:26:43;;;;;;;0.00;0.00;;;;;;;9.07;100.00;97798.19;5115061;28;20256;-52
2023/12/21 06:29:30;;;;;;;0.00;0.00;;;;;;;9.09;100.00;97793.66;5115020;28;20194;-52
2023/12/21 06:32:16;;;;;;;0.10;0.10;;;;;;;9.13;100.00;97803.81;5113969;28;20201;-52
2023/12/21 06:35:04;;;;;;;0.10;0.10;;;;;;;9.10;100.00;97798.81;5114380;28;20332;-52
2023/12/21 06:37:52;;;;;;;0.00;0.00;;;;;;;9.14;100.00;97775.63;5113538;28;20316;-52
2023/12/21 06:40:39;;;;;;;0.00;0.00;;;;;;;9.10;100.00;97775.03;5114653;28;20490;-52
2023/12/21 06:43:26;;;;;;;0.10;0.10;;;;;;;9.06;100.00;97786.78;5114701;28;20186;-52
2023/12/21 06:46:13;;;;;;;0.00;0.00;;;;;;;9.00;100.00;97789.94;5114538;28;20190;-52
2023/12/21 06:49:00;;;;;;;0.00;0.00;;;;;;;8.99;100.00;97800.63;5113501;28;20191;-51
2023/12/21 06:51:47;;;;;;;0.00;0.00;;;;;;;8.95;100.00;97791.25;5114513;28;20321;-52
2023/12/21 06:54:35;;;;;;;0.00;0.00;;;;;;;8.99;100.00;97806.75;5112963;28;20278;-52
2023/12/21 06:57:23;;;;;;;0.00;0.00;;;;;;;9.00;100.00;97826.91;5114298;28;20267;-52
2023/12/21 07:00:11;;;;;;;0.00;0.00;;;;;;;8.92;100.00;97813.47;5114386;28;20198;-52
2023/12/21 07:02:59;;;;;;;0.00;0.00;;;;;;;9.04;100.00;97803.72;5114294;28;20186;-52
2023/12/21 07:05:46;;;;;;;0.00;0.00;;;;;;;8.92;100.00;97805.53;5114198;28;20198;-53
2023/12/21 07:08:32;;;;;;;0.10;0.10;;;;;;;8.99;100.00;97804.09;5112835;28;20680;-53
2023/12/21 07:11:21;;;;;;;0.00;0.00;;;;;;;8.93;100.00;97803.75;5114220;28;20672;-53
2023/12/21 07:14:08;;;;;;;0.00;0.00;;;;;;;8.87;100.00;97811.16;5113696;28;20241;-52
2023/12/21 07:16:55;;;;;;;0.00;0.00;;;;;;;8.83;100.00;97806.25;5114130;28;20193;-52
2023/12/21 07:19:41;;;;;;;0.00;0.00;;;;;;;8.88;100.00;97798.84;5113669;28;20229;-53
2023/12/21 07:22:28;;;;;;;0.00;0.00;;;;;;;8.86;100.00;97795.44;5113707;28;20197;-53
2023/12/21 07:25:16;;;;;;;0.00;0.00;;;;;;;8.83;100.00;97782.50;5113860;28;20193;-52
2023/12/21 07:28:04;;;;;;;0.00;0.00;;;;;;;8.83;100.00;97777.22;5113995;28;20271;-52
2023/12/21 07:30:51;;;;;;;0.00;0.00;;;;;;;8.82;100.00;97776.38;5113802;28;20197;-52
2023/12/21 07:33:38;;;;;;;0.00;0.00;;;;;;;8.89;100.00;97772.31;5112698;28;20193;-53
2023/12/21 07:36:25;;;;;;;0.00;0.00;;;;;;;8.88;100.00;97798.84;5113835;28;20240;-53
2023/12/21 07:39:12;;;;;;;0.00;0.00;;;;;;;8.88;100.00;97769.78;5112406;28;20202;-52
2023/12/21 07:41:59;;;;;;;0.00;0.00;;;;;;;8.91;100.00;97772.19;5113441;28;20763;-53
2023/12/21 07:44:47;;;;;;;0.00;0.00;;;;;;;8.93;100.00;97758.84;5113760;28;20186;-53
2023/12/21 07:47:34;;;;;;;0.00;0.00;;;;;;;8.95;100.00;97726.06;5113735;28;20190;-53
2023/12/21 07:50:21;;;;;;;0.00;0.00;;;;;;;8.88;100.00;97754.78;5113587;28;20197;-52
2023/12/21 07:53:08;;;;;;;0.00;0.00;;;;;;;8.92;100.00;97747.44;5112335;28;20194;-52
2023/12/21 07:55:55;;;;;;;0.00;0.00;;;;;;;8.89;100.00;97745.06;5113198;28;20209;-53
2023/12/21 07:58:42;;;;;;;0.00;0.00;;;;;;;8.86;100.00;97732.09;5113394;28;20255;-52
2023/12/21 08:01:30;;;;;;;0.00;0.00;;;;;;;8.87;100.00;97731.13;5113306;28;20193;-53
2023/12/21 08:04:17;;;;;;;0.00;0.00;;;;;;;8.84;100.00;97703.19;5113403;28;20182;-52
2023/12/21 08:07:04;;;;;;;0.00;0.00;;;;;;;8.84;100.00;97724.31;5113485;28;20202;-52
2023/12/21 08:09:51;;;;;;;0.00;0.00;;;;;;;8.83;100.00;97703.31;5111970;28;20198;-52
2023/12/21 08:12:38;;;;;;;0.00;0.00;;;;;;;8.83;100.00;97704.16;5113375;28;20676;-53
2023/12/21 08:15:26;;;;;;;0.00;0.00;;;;;;;8.84;100.00;97697.91;5112996;28;20217;-51
2023/12/21 08:18:15;;;;;;;0.00;0.00;;;;;;;8.84;100.00;97703.19;5112713;28;20723;-53
2023/12/21 08:21:01;;;;;;;0.00;0.00;;;;;;;8.84;100.00;97697.91;5113246;28;20250;-53
2023/12/21 08:23:50;;;;;;;0.00;0.00;;;;;;;8.82;100.00;97677.88;5111984;28;20717;-52
2023/12/21 08:26:38;;;;;;;0.00;0.00;;;;;;;8.86;100.00;97685.41;5113081;28;20194;-52
2023/12/21 08:29:25;;;;;;;0.00;0.00;;;;;;;8.83;100.00;97674.28;5113259;28;20256;-53
2023/12/21 08:32:13;;;;;;;0.00;0.00;;;;;;;8.87;100.00;97684.44;5113239;28;20194;-52
2023/12/21 08:35:01;;;;;;;0.00;0.00;;;;;;;8.92;100.00;97660.31;5113075;28;20237;-52
2023/12/21 08:37:48;;;;;;;0.00;0.00;;;;;;;8.93;100.00;97650.59;5111782;28;20210;-53
2023/12/21 08:40:35;;;;;;;0.00;0.00;;;;;;;8.93;100.00;97632.94;5113003;28;20308;-52
2023/12/21 08:43:22;;;;;;;0.00;0.00;;;;;;;8.94;100.00;97615.31;5113089;28;20193;-53
2023/12/21 08:46:09;;;;;;;0.00;0.00;;;;;;;9.02;100.00;97623.44;5112964;28;20186;-52
2023/12/21 08:48:56;;;;;;;0.00;0.00;;;;;;;9.00;100.00;97609.53;5113013;28;20268;-52
2023/12/21 08:51:45;;;;;;;0.00;0.00;;;;;;;9.01;100.00;97614.69;5112843;28;20264;-52
2023/12/21 08:54:31;;;;;;;0.00;0.00;;;;;;;9.00;100.00;97597.16;5112645;28;20312;-53
2023/12/21 08:57:22;;;;;;;0.00;0.00;;;;;;;9.05;100.00;97565.09;5116704;28;20237;-53
2023/12/21 09:00:12;;;;;;;0.10;0.10;;;;;;;9.06;100.00;97559.66;5115666;28;20198;-52
2023/12/21 09:03:00;;;;;;;0.00;0.00;;;;;;;9.04;100.00;97550.22;5116599;28;20198;-53
2023/12/21 09:05:47;;;;;;;0.00;0.00;;;;;;;9.07;100.00;97540.25;5116613;28;20182;-52
2023/12/21 09:08:36;;;;;;;0.00;0.00;;;;;;;9.10;100.00;97532.06;5115031;28;20692;-53
2023/12/21 09:11:22;;;;;;;0.00;0.00;;;;;;;9.13;100.00;97507.19;5116526;28;20680;-53
2023/12/21 09:14:10;;;;;;;0.00;0.00;;;;;;;9.20;100.00;97526.00;5116603;28;20198;-53
2023/12/21 09:16:56;;;;;;;0.00;0.00;;;;;;;9.23;100.00;97531.84;5116191;28;20189;-52
2023/12/21 09:19:44;;;;;;;0.00;0.00;;;;;;;9.31;100.00;97518.00;5115273;28;20263;-52
2023/12/21 09:22:32;;;;;;;0.00;0.00;;;;;;;9.30;100.00;97511.03;5114895;28;20665;-53
2023/12/21 09:25:21;;;;;;;0.00;0.00;;;;;;;9.36;100.00;97510.50;5116097;28;20209;-53
2023/12/21 09:28:07;;;;;;;0.00;0.00;;;;;;;9.29;100.00;97502.28;5115955;28;20293;-53
2023/12/21 09:30:56;;;;;;;0.00;0.00;;;;;;;9.24;100.00;97499.19;5115670;28;20591;-52
2023/12/21 09:33:43;;;;;;;0.00;0.00;;;;;;;9.23;100.00;97491.38;5115842;28;20264;-52
2023/12/21 09:36:30;;;;;;;0.00;0.00;;;;;;;9.18;100.00;97494.44;5115761;28;20214;-52
2023/12/21 09:39:17;;;;;;;0.10;0.10;;;;;;;9.15;100.00;97492.88;5114737;28;20194;-53
2023/12/21 09:42:07;;;;;;;0.00;0.00;;;;;;;9.24;100.00;97482.50;5115784;28;20206;-52
2023/12/21 09:44:54;;;;;;;0.00;0.00;;;;;;;9.18;100.00;97510.28;5115769;28;20256;-52
2023/12/21 09:47:43;;;;;;;0.00;0.00;;;;;;;9.13;100.00;97510.66;5115726;28;20190;-53
2023/12/21 09:50:30;;;;;;;0.00;0.00;;;;;;;9.12;100.00;97511.63;5115682;28;20202;-53
2023/12/21 09:53:17;;;;;;;0.00;0.00;;;;;;;9.13;100.00;97508.03;5114634;28;20202;-52
2023/12/21 09:56:06;;;;;;;0.00;0.00;;;;;;;9.09;100.00;97506.63;5115566;28;20291;-53
2023/12/21 09:58:58;;;;;;;0.00;0.00;;;;;;;9.08;100.00;97501.47;5115403;28;20317;-52
2023/12/21 10:01:45;;;;;;;0.00;0.00;;;;;;;9.12;100.00;97498.44;5115747;28;20190;-53
2023/12/21 10:04:33;;;;;;;0.00;0.00;;;;;;;9.11;100.00;97494.13;5115165;28;20401;-52
2023/12/21 10:07:22;;;;;;;0.07;0.07;;;;;;;9.08;100.00;97482.97;5114415;28;20218;-53
2023/12/21 10:10:10;;;;;;;0.00;0.00;;;;;;;9.13;100.00;97470.22;5115111;28;20228;-53
2023/12/21 10:12:57;;;;;;;0.00;0.00;;;;;;;9.16;100.00;97464.66;5115310;28;20751;-52
2023/12/21 10:15:46;;;;;;;0.00;0.00;;;;;;;9.15;100.00;97460.34;5114992;28;20214;-53
2023/12/21 10:18:34;;;;;;;0.00;0.00;;;;;;;9.13;100.00;97449.91;5115230;28;20249;-53
2023/12/21 10:21:22;;;;;;;0.00;0.00;;;;;;;9.15;100.00;97447.97;5115147;28;20297;-53
2023/12/21 10:24:10;;;;;;;0.00;0.00;;;;;;;9.14;100.00;97443.66;5113859;28;20190;-52
2023/12/21 10:26:57;;;;;;;0.00;0.00;;;;;;;9.21;100.00;97420.22;5115165;28;20190;-53
2023/12/21 10:29:52;;;;;;;0.00;0.00;;;;;;;9.29;100.00;97423.03;5114854;28;20187;-52
2023/12/21 10:32:42;;;;;;;0.00;0.00;;;;;;;9.34;100.00;97417.34;5114457;28;20199;-53
2023/12/21 10:35:29;;;;;;;0.00;0.00;;;;;;;9.33;100.00;97407.75;5114694;28;20693;-52
2023/12/21 10:38:16;;;;;;;0.07;0.07;;;;;;;9.37;100.00;97393.31;5113467;28;20236;-52
2023/12/21 10:41:05;;;;;;;0.00;0.00;;;;;;;9.45;100.00;97391.63;5114740;28;20190;-52
2023/12/21 10:43:53;;;;;;;0.00;0.00;;;;;;;9.44;100.00;97378.56;5114661;28;20199;-53
2023/12/21 10:46:41;;;;;;;0.00;0.00;;;;;;;9.40;100.00;97371.91;5114405;28;20256;-53
2023/12/21 10:49:29;;;;;;;0.00;0.00;;;;;;;9.41;100.00;97376.19;5113763;28;20637;-52
2023/12/21 10:52:19;;;;;;;0.00;0.00;;;;;;;9.42;100.00;97347.00;5101071;28;20229;-54
2023/12/21 10:55:10;;;;;;;0.00;0.00;;;;;;;9.41;100.00;97363.81;5112030;27;20216;-54
2023/12/21 10:57:57;;;;;;;0.00;0.00;;;;;;;9.44;100.00;97349.50;5152362;27;20201;-53
2023/12/21 11:00:45;;;;;;;0.00;0.00;;;;;;;9.38;100.00;97334.22;5155449;27;20306;-53
2023/12/21 11:03:33;;;;;;;0.00;0.00;;;;;;;9.36;100.00;97344.06;5155464;27;20239;-53
2023/12/21 11:06:22;;;;;;;0.00;0.00;;;;;;;9.41;100.00;97324.19;5155361;27;20189;-52
2023/12/21 11:09:10;;;;;;;0.00;0.00;;;;;;;9.42;100.00;97323.22;5154104;27;20185;-53
2023/12/21 11:11:57;;;;;;;0.00;0.00;;;;;;;9.34;100.00;97336.28;5155355;27;20299;-53
2023/12/21 11:14:44;;;;;;;0.00;0.00;;;;;;;9.34;100.00;97316.94;5155248;27;20314;-53
2023/12/21 11:17:35;;;;;;;0.00;0.00;;;;;;;9.28;100.00;97312.22;5154447;27;20216;-52
2023/12/21 11:20:25;;;;;;;0.00;0.00;;;;;;;9.34;100.00;97316.94;5155231;27;20205;-53
2023/12/21 11:23:29;;;;;;;0.00;0.00;;;;;;;9.29;100.00;97316.53;5153738;27;20314;-53
2023/12/21 11:26:21;;;;;;;0.00;0.00;;;;;;;9.30;100.00;97297.91;5155057;27;20211;-53
2023/12/21 11:29:10;;;;;;;0.00;0.00;;;;;;;9.26;100.00;97293.84;5155249;27;20250;-53
2023/12/21 11:31:58;;;;;;;0.00;0.00;;;;;;;9.28;100.00;97301.66;5154674;27;20211;-53
2023/12/21 11:34:46;;;;;;;0.00;0.00;;;;;;;9.30;100.00;97284.69;5155043;27;20193;-53
2023/12/21 11:37:34;;;;;;;0.00;0.00;;;;;;;9.34;100.00;97287.88;5153390;27;20278;-52
2023/12/21 11:40:24;;;;;;;0.00;0.00;;;;;;;9.34;100.00;97283.44;5154972;27;20235;-53
2023/12/21 11:43:20;;;;;;;0.00;0.00;;;;;;;9.37;100.00;97285.00;5154702;27;20205;-53
2023/12/21 11:46:09;;;;;;;0.00;0.00;;;;;;;9.40;100.00;97276.78;5154866;27;20195;-52
2023/12/21 11:48:56;;;;;;;0.00;0.00;;;;;;;9.38;100.00;97282.22;5154772;27;20261;-53
2023/12/21 11:51:47;;;;;;;0.00;0.00;;;;;;;9.41;100.00;97273.16;5154740;27;20231;-53
2023/12/21 11:54:35;;;;;;;0.00;0.00;;;;;;;9.44;100.00;97257.84;5153446;27;20250;-53
2023/12/21 11:57:29;;;;;;;0.00;0.00;;;;;;;9.44;100.00;97246.47;5154321;27;20236;-53
2023/12/21 12:00:17;;;;;;;0.00;0.00;;;;;;;9.44;100.00;97228.78;5154748;27;20677;-53
2023/12/21 12:03:05;;;;;;;0.00;0.00;;;;;;;9.44;100.00;97226.16;5154691;27;20200;-53
2023/12/21 12:05:53;;;;;;;0.00;0.00;;;;;;;9.41;100.00;97212.41;5154638;27;20292;-52
2023/12/21 12:08:42;;;;;;;0.00;0.00;;;;;;;9.51;100.00;97212.41;5153202;27;20663;-53
2023/12/21 12:11:29;;;;;;;0.00;0.00;;;;;;;9.51;100.00;97209.75;5154495;27;20268;-53
2023/12/21 12:14:19;;;;;;;0.00;0.00;;;;;;;9.58;100.00;97206.41;5154303;27;20295;-52
2023/12/21 12:17:06;;;;;;;0.00;0.00;;;;;;;9.58;100.00;97195.03;5154336;27;20286;-53
2023/12/21 12:19:55;;;;;;;0.00;0.00;;;;;;;9.60;100.00;97174.56;5154267;27;20232;-53
2023/12/21 12:22:43;;;;;;;0.00;0.00;;;;;;;9.59;100.00;97170.25;5152882;27;20195;-52
2023/12/21 12:25:31;;;;;;;0.00;0.00;;;;;;;9.62;100.00;97175.25;5154493;27;20666;-52
2023/12/21 12:28:24;;;;;;;0.00;0.00;;;;;;;9.60;100.00;97159.53;5154368;27;20197;-53
2023/12/21 12:31:13;;;;;;;0.00;0.00;;;;;;;9.55;100.00;97168.84;5158482;27;20270;-52
2023/12/21 12:34:00;;;;;;;0.00;0.00;;;;;;;9.59;100.00;97160.50;5158616;27;20189;-52
2023/12/21 12:36:54;;;;;;;0.00;0.00;;;;;;;9.60;100.00;97151.59;5158372;27;20339;-53
2023/12/21 12:39:41;;;;;;;0.00;0.00;;;;;;;9.57;100.00;97159.84;5157148;27;20211;-52
2023/12/21 12:42:28;;;;;;;0.00;0.00;;;;;;;9.57;100.00;97157.19;5158347;27;20349;-53
2023/12/21 12:45:15;;;;;;;0.00;0.00;;;;;;;9.61;100.00;97136.59;5158329;27;20230;-52
2023/12/21 12:48:04;;;;;;;0.00;0.00;;;;;;;9.58;100.00;97135.06;5158310;27;20193;-52
2023/12/21 12:50:51;;;;;;;0.00;0.00;;;;;;;9.59;100.00;97143.81;5157975;27;20197;-53
2023/12/21 12:53:37;;;;;;;0.00;0.00;;;;;;;9.61;100.00;97147.97;5156772;27;20196;-52
2023/12/21 12:56:25;;;;;;;0.00;0.00;;;;;;;9.68;100.00;97146.44;5157489;27;20720;-52
2023/12/21 12:59:12;;;;;;;0.00;0.00;;;;;;;9.70;100.00;97148.94;5157519;27;20200;-52
2023/12/21 13:01:59;;;;;;;0.00;0.00;;;;;;;9.80;100.00;97147.13;5157934;27;20230;-52
2023/12/21 13:04:47;;;;;;;0.00;0.00;;;;;;;9.84;100.00;97135.25;5157957;27;20678;-52
2023/12/21 13:07:34;;;;;;;0.00;0.00;;;;;;;9.96;100.00;97138.59;5156477;27;20201;-52
2023/12/21 13:10:22;;;;;;;0.00;0.00;;;;;;;9.92;100.00;97119.53;5157826;27;20646;-53